Latest Weather Observations for PORTABLE QFRI (Inglewood)

IDQ60801

Issued at 11:22 pm EST Thursday 6 October 2022 (issued every 10 minutes, with the page automatically refreshed every 10 minutes)

About weather observations | Map of weather stations | Latest weather observations for QLD | Other Formats
Station Details ID: 250073 Name: INGLEWOOD (QFRI) Lat: -28.42 Lon: 151.10 Height: 286.0 m

Portable automatic weather stations (PAWS) are operated by other organisations, such as Fire and Emergency Services, and are included here by agreement. Portable stations may be deployed to a location for a short period and their location may be subject to change without notice. Wind observations from these stations are provided from heights of either three (3) or ten (10) metres above ground level (AGL).

Data from the previous 72 hours. | See also: Recent months for locations in Queensland
Date/Time
EST
Temp
°C
App
Temp
°C
Dew
Point
°C
Rel
Hum
%
Delta-T
°C
Wind Press
QNH
hPa
Press
MSL
hPa
Rain since
9am
mm
Dir  Spd
km/h
Gust
km/h
Spd
kts
Gust
kts
06/11:10pm 14.5 13.8 11.9 84 1.4 ENE 7 9 4 5 - - 0.0
06/11:00pm 14.5 13.4 12.0 85 1.4 ENE 9 11 5 6 - - 0.0
06/10:50pm 14.5 13.4 11.8 84 1.5 ENE 9 11 5 6 - - 0.0
06/10:40pm 14.5 13.0 12.0 85 1.4 ENE 11 11 6 6 - - 0.0
06/10:30pm 14.1 12.6 11.8 86 1.3 E 11 11 6 6 - - 0.0
06/10:20pm 14.3 13.1 11.6 84 1.5 ENE 9 11 5 6 - - 0.0
06/10:10pm 14.7 14.0 12.1 84 1.4 ENE 7 9 4 5 - - 0.0
06/10:00pm 15.0 14.3 12.1 83 1.6 ENE 7 7 4 4 - - 0.0
06/09:50pm 15.2 14.6 12.2 82 1.7 ENE 7 9 4 5 - - 0.0
06/09:40pm 15.0 14.0 12.2 83 1.5 ENE 9 11 5 6 - - 0.0
06/09:30pm 15.1 14.0 12.1 82 1.7 ENE 9 11 5 6 - - 0.0
06/09:20pm 15.4 14.4 12.2 81 1.8 ENE 9 11 5 6 - - 0.0
06/09:10pm 16.0 15.5 12.5 80 2.0 ENE 7 9 4 5 - - 0.0
06/09:00pm 16.1 15.6 12.5 79 2.0 ENE 7 9 4 5 - - 0.0
06/08:50pm 16.0 14.7 12.4 79 2.0 ENE 11 13 6 7 - - 0.0
06/08:40pm 15.8 14.1 12.4 80 1.9 E 13 13 7 7 - - 0.0
06/08:30pm 15.7 14.4 12.4 81 1.8 E 11 13 6 7 - - 0.0
06/08:20pm 15.8 14.5 12.4 80 1.9 E 11 13 6 7 - - 0.0
06/08:10pm 16.1 14.8 12.5 79 2.0 E 11 13 6 7 - - 0.0
06/08:00pm 16.5 14.8 12.6 78 2.2 E 13 13 7 7 - - 0.0
06/07:50pm 17.0 15.7 12.6 75 2.5 ENE 11 13 6 7 - - 0.0
06/07:40pm 16.9 14.9 12.6 76 2.4 E 15 17 8 9 - - 0.0
06/07:30pm 16.9 14.9 12.7 76 2.4 E 15 15 8 8 - - 0.0
06/07:20pm 17.0 15.4 12.7 76 2.4 E 13 13 7 7 - - 0.0
06/07:10pm 17.2 16.0 12.7 75 2.5 E 11 13 6 7 - - 0.0
06/07:00pm 17.5 16.7 12.8 74 2.7 E 9 11 5 6 - - 0.0
06/06:50pm 17.9 17.4 12.8 72 2.9 ENE 7 11 4 6 - - 0.0
06/06:40pm 18.2 17.7 12.7 70 3.1 ENE 7 7 4 4 - - 0.0
06/06:30pm 18.4 17.9 12.6 69 3.3 ENE 7 7 4 4 - - 0.0
06/06:20pm 18.5 17.9 12.4 67 3.4 ENE 7 7 4 4 - - 0.0
06/06:10pm 18.7 17.7 12.4 67 3.6 ENE 9 11 5 6 - - 0.0
06/06:00pm 19.0 17.7 12.4 65 3.7 ENE 11 13 6 7 - - 0.0
06/05:50pm 19.3 18.0 12.4 64 3.9 ENE 11 13 6 7 - - 0.0
06/05:40pm 19.5 18.1 12.3 63 4.1 ENE 11 17 6 9 - - 0.0
06/05:30pm 19.6 18.6 12.2 62 4.2 ENE 9 11 5 6 - - 0.0
06/05:20pm 19.7 18.4 12.5 63 4.1 ENE 11 15 6 8 - - 0.0
06/05:10pm 19.9 18.5 12.3 61 4.3 ENE 11 13 6 7 - - 0.0
06/05:00pm 20.0 19.0 12.2 60 4.4 ENE 9 11 5 6 - - 0.0
06/04:50pm 20.0 18.9 12.0 60 4.5 ENE 9 13 5 7 - - 0.0
06/04:40pm 20.0 18.5 11.8 59 4.6 ENE 11 13 6 7 - - 0.0
06/04:30pm 20.1 19.1 12.2 60 4.5 ENE 9 11 5 6 - - 0.0
06/04:20pm 20.2 19.5 12.0 59 4.6 NE 7 9 4 5 - - 0.0
06/04:10pm 20.3 18.8 12.0 59 4.7 ENE 11 13 6 7 - - 0.0
06/04:00pm 20.5 19.4 12.0 58 4.8 NE 9 13 5 7 - - 0.0
06/03:50pm 20.5 18.7 12.0 58 4.8 ENE 13 17 7 9 - - 0.0
06/03:40pm 20.8 19.5 12.6 59 4.7 NE 11 11 6 6 - - 0.0
06/03:30pm 20.6 19.5 12.1 58 4.8 NE 9 13 5 7 - - 0.0
06/03:20pm 20.4 19.3 12.0 58 4.7 NE 9 11 5 6 - - 0.0
06/03:10pm 20.5 19.2 12.4 59 4.6 NNE 11 15 6 8 - - 0.0
06/03:00pm 20.4 19.3 12.0 58 4.7 NE 9 13 5 7 - - 0.0
06/02:50pm 20.2 18.4 12.1 59 4.6 NNE 13 15 7 8 - - 0.0
06/02:40pm 20.4 19.4 12.3 59 4.6 NNE 9 13 5 7 - - 0.0
06/02:30pm 20.4 19.4 12.4 60 4.6 NE 9 11 5 6 - - 0.0
06/02:20pm 20.4 19.3 12.1 59 4.7 NE 9 11 5 6 - - 0.0
06/02:10pm 20.5 19.5 12.3 59 4.7 NNE 9 11 5 6 - - 0.0
06/02:00pm 20.6 19.7 12.5 59 4.6 NE 9 11 5 6 - - 0.0
06/01:50pm 20.7 19.5 12.8 60 4.5 NNE 11 19 6 10 - - 0.0
06/01:40pm 20.5 18.7 12.1 58 4.8 NE 13 19 7 10 - - 0.0
06/01:30pm 20.5 19.2 12.4 59 4.6 NE 11 17 6 9 - - 0.0
06/01:20pm 20.6 18.9 12.6 60 4.6 NNE 13 17 7 9 - - 0.0
06/01:10pm 20.3 18.6 12.3 60 4.5 NNE 13 19 7 10 - - 0.0
06/01:00pm 19.8 18.1 12.5 62 4.2 ENE 13 20 7 11 - - 0.0
06/12:50pm 19.9 18.5 12.3 61 4.3 NNE 11 15 6 8 - - 0.0
06/12:40pm 19.5 18.3 12.9 65 3.8 NNE 11 15 6 8 - - 0.0
06/12:30pm 19.3 17.8 13.0 67 3.6 NE 13 17 7 9 - - 0.0
06/12:20pm 19.2 18.3 12.7 66 3.7 NE 9 13 5 7 - - 0.0
06/12:10pm 19.1 17.9 12.7 66 3.6 NNE 11 13 6 7 - - 0.0
06/12:00pm 18.8 17.1 12.6 67 3.5 NE 13 17 7 9 - - 0.0
06/11:50am 18.8 17.5 12.4 66 3.6 NE 11 15 6 8 - - 0.0
06/11:40am 18.6 17.2 12.3 66 3.5 NNE 11 13 6 7 - - 0.0
06/11:30am 18.1 16.8 12.5 70 3.2 NE 11 15 6 8 - - 0.0
06/11:20am 17.6 16.4 12.7 73 2.8 ENE 11 13 6 7 - - 0.0
06/11:10am 17.4 16.6 12.9 75 2.5 ENE 9 11 5 6 - - 0.0
06/11:00am 17.3 16.5 12.9 75 2.5 NE 9 9 5 5 - - 0.0
06/10:50am 17.3 16.4 12.6 74 2.6 ENE 9 11 5 6 - - 0.0
06/10:40am 17.5 17.0 12.5 72 2.8 NE 7 11 4 6 - - 0.0
06/10:30am 17.5 17.0 12.6 73 2.8 NNE 7 11 4 6 - - 0.0
06/10:20am 17.6 17.0 12.3 71 3.0 NE 7 9 4 5 - - 0.0
06/10:10am 17.5 16.4 12.1 70 3.0 NE 9 11 5 6 - - 0.0
06/10:00am 17.5 16.4 12.1 70 3.0 NNE 9 13 5 7 - - 0.0
06/09:50am 17.4 16.3 11.9 70 3.1 NE 9 11 5 6 - - 0.0
06/09:40am 17.5 16.4 12.1 70 3.0 NE 9 13 5 7 - - 0.0
06/09:30am 17.5 16.5 12.2 71 3.0 NNE 9 13 5 7 - - 0.0
06/09:20am 17.3 16.7 12.3 72 2.8 NE 7 11 4 6 - - 0.0
06/09:10am 17.0 15.9 12.0 72 2.8 NE 9 11 5 6 - - 0.0
06/09:00am 16.9 16.2 12.0 73 2.7 NE 7 9 4 5 - - 1.0
06/08:50am 16.6 15.9 12.0 74 2.6 NE 7 11 4 6 - - 1.0
06/08:40am 16.3 15.2 11.9 75 2.4 ENE 9 13 5 7 - - 1.0
06/08:30am 16.1 15.4 12.0 76 2.3 NE 7 9 4 5 - - 1.0
06/08:20am 16.0 15.4 11.8 76 2.3 NE 6 11 3 6 - - 1.0
06/08:10am 15.9 15.1 11.7 76 2.3 NE 7 9 4 5 - - 1.0
06/08:00am 15.8 15.0 11.6 76 2.3 NE 7 9 4 5 - - 1.0
06/07:50am 15.8 15.2 11.8 77 2.2 NE 6 7 3 4 - - 1.0
06/07:40am 15.7 14.5 11.6 76 2.2 NE 9 9 5 5 - - 1.0
06/07:30am 15.4 14.6 11.7 78 2.0 NE 7 9 4 5 - - 1.0
06/07:20am 15.2 14.6 11.6 79 2.0 NE 6 9 3 5 - - 1.0
06/07:10am 15.0 14.4 11.6 80 1.9 NNE 6 7 3 4 - - 1.0
06/07:00am 14.9 14.7 11.8 82 1.7 NE 4 6 2 3 - - 1.0
06/06:50am 14.8 14.6 11.7 82 1.7 NE 4 6 2 3 - - 1.0
06/06:40am 14.7 14.0 11.4 80 1.8 NE 6 7 3 4 - - 1.0
06/06:30am 14.6 13.8 11.2 80 1.8 NE 6 7 3 4 - - 1.0
06/06:20am 14.4 13.6 11.1 80 1.8 NE 6 7 3 4 - - 1.0
06/06:10am 14.2 13.5 11.3 83 1.6 ENE 6 7 3 4 - - 1.0
06/06:00am 14.1 13.8 11.6 85 1.4 ENE 4 6 2 3 - - 1.0
06/05:50am 14.0 13.2 11.6 85 1.3 ENE 7 9 4 5 - - 1.0
06/05:40am 14.0 13.1 11.4 84 1.4 ENE 7 9 4 5 - - 1.0
06/05:30am 14.0 13.1 11.4 84 1.4 ENE 7 7 4 4 - - 1.0
06/05:20am 14.0 13.1 11.5 85 1.4 ENE 7 9 4 5 - - 1.0
06/05:10am 13.9 12.6 11.4 85 1.3 ENE 9 9 5 5 - - 1.0
06/05:00am 13.9 12.7 11.6 86 1.2 E 9 9 5 5 - - 1.0
06/04:50am 13.9 12.7 11.7 86 1.2 ENE 9 9 5 5 - - 1.0
06/04:40am 14.0 13.2 11.6 85 1.3 ENE 7 9 4 5 - - 1.0
06/04:30am 14.0 13.4 11.6 85 1.3 NE 6 6 3 3 - - 1.0
06/04:20am 14.0 13.7 11.5 85 1.4 ENE 4 6 2 3 - - 1.0
06/04:10am 14.0 13.3 11.5 85 1.4 ENE 6 7 3 4 - - 1.0
06/04:00am 14.0 12.8 11.5 85 1.4 ENE 9 9 5 5 - - 1.0
06/03:50am 14.0 12.7 11.3 84 1.5 ENE 9 13 5 7 - - 1.0
06/03:40am 14.0 12.0 11.4 84 1.4 ENE 13 13 7 7 - - 1.0
06/03:30am 14.0 12.0 11.4 84 1.4 E 13 15 7 8 - - 1.0
06/03:20am 14.1 12.0 11.3 83 1.5 E 13 17 7 9 - - 1.0
06/03:10am 14.1 11.6 11.2 83 1.6 ENE 15 15 8 8 - - 1.0
06/03:00am 14.1 11.7 11.4 84 1.5 ENE 15 17 8 9 - - 1.0
06/02:50am 14.1 12.5 11.4 84 1.5 ENE 11 15 6 8 - - 1.0
06/02:40am 14.1 13.3 11.6 85 1.4 ENE 7 9 4 5 - - 1.0
06/02:30am 14.0 13.4 11.6 85 1.3 NE 6 6 3 3 - - 1.0
06/02:20am 14.0 13.8 11.7 86 1.2 NNE 4 6 2 3 - - 1.0
06/02:10am 14.1 13.5 11.8 86 1.3 NE 6 6 3 3 - - 1.0
06/02:00am 14.1 13.5 11.8 86 1.3 NE 6 7 3 4 - - 1.0
06/01:50am 14.1 13.3 11.6 85 1.4 ENE 7 9 4 5 - - 1.0
06/01:40am 14.1 12.5 11.6 85 1.4 E 11 13 6 7 - - 1.0
06/01:30am 14.1 12.5 11.7 85 1.3 E 11 13 6 7 - - 1.0
06/01:20am 14.2 12.2 11.5 84 1.5 E 13 13 7 7 - - 1.0
06/01:10am 14.2 12.9 11.1 81 1.7 ESE 9 11 5 6 - - 1.0
06/01:00am 14.2 12.9 11.3 83 1.6 E 9 11 5 6 - - 1.0
06/12:50am 14.2 12.9 11.2 82 1.6 E 9 11 5 6 - - 1.0
06/12:40am 14.3 13.0 11.1 81 1.7 E 9 9 5 5 - - 1.0
06/12:30am 14.4 13.0 10.9 79 1.9 E 9 11 5 6 - - 1.0
06/12:20am 14.3 12.6 11.3 82 1.6 E 11 13 6 7 - - 1.0
06/12:10am 14.4 13.2 11.5 83 1.6 E 9 9 5 5 - - 1.0
06/12:00am 14.6 13.7 11.4 81 1.7 E 7 9 4 5 - - 0.8
 
Date/Time
EST
Temp
°C
App
Temp
°C
Dew
Point
°C
Rel
Hum
%
Delta-T
°C
Wind Press
QNH
hPa
Press
MSL
hPa
Rain since
9am
mm
Dir  Spd
km/h
Gust
km/h
Spd
kts
Gust
kts
05/11:50pm 14.7 13.8 11.4 80 1.8 E 7 9 4 5 - - 0.8
05/11:40pm 14.8 14.2 11.6 81 1.7 ENE 6 7 3 4 - - 0.8
05/11:30pm 14.9 14.8 12.0 83 1.6 NE 4 4 2 2 - - 0.8
05/11:20pm 14.9 14.8 12.1 83 1.5 ENE 4 4 2 2 - - 0.8
05/11:10pm 15.0 14.3 12.0 82 1.6 ENE 7 9 4 5 - - 0.8
05/11:00pm 15.1 14.0 12.0 82 1.7 ENE 9 11 5 6 - - 0.6
05/10:50pm 15.1 13.6 11.9 81 1.8 E 11 11 6 6 - - 0.6
05/10:40pm 15.2 14.1 12.1 82 1.7 E 9 11 5 6 - - 0.6
05/10:30pm 15.3 14.8 12.1 81 1.8 E 6 7 3 4 - - 0.6
05/10:20pm 15.4 14.9 12.2 81 1.8 ESE 6 7 3 4 - - 0.6
05/10:10pm 15.3 14.8 12.2 82 1.7 ESE 6 7 3 4 - - 0.6
05/10:00pm 15.4 14.4 12.2 81 1.8 E 9 9 5 5 - - 0.4
05/09:50pm 15.5 14.1 12.2 81 1.8 E 11 11 6 6 - - 0.4
05/09:40pm 15.5 14.4 12.1 80 1.9 E 9 11 5 6 - - 0.4
05/09:30pm 15.7 14.2 12.0 78 2.0 ENE 11 11 6 6 - - 0.4
05/09:20pm 15.9 14.0 11.8 76 2.3 ENE 13 17 7 9 - - 0.4
05/09:10pm 15.9 13.9 11.6 75 2.4 ENE 13 15 7 8 - - 0.4
05/09:00pm 15.8 14.6 11.6 76 2.3 ENE 9 11 5 6 - - 0.4
05/08:50pm 15.9 15.1 11.6 75 2.4 ENE 7 7 4 4 - - 0.4
05/08:40pm 15.9 14.6 11.4 74 2.5 ENE 9 11 5 6 - - 0.4
05/08:30pm 15.9 14.8 11.9 77 2.2 E 9 11 5 6 - - 0.2
05/08:20pm 16.4 16.5 11.4 72 2.7 NE 2 6 1 3 - - 0.2
05/08:10pm 16.5 16.9 11.3 71 2.8 CALM 0 2 0 1 - - 0.2
05/08:00pm 16.6 17.0 11.2 70 2.9 CALM 0 2 0 1 - - 0.0
05/07:50pm 16.7 16.3 11.2 70 3.0 NNE 4 7 2 4 - - 0.0
05/07:40pm 16.9 15.1 11.0 68 3.2 ENE 11 13 6 7 - - 0.0
05/07:30pm 17.7 15.8 10.5 62 3.9 ENE 11 13 6 7 - - 0.0
05/07:20pm 18.1 16.0 9.9 58 4.4 ENE 11 15 6 8 - - 0.0
05/07:10pm 18.2 16.5 9.7 57 4.6 NE 9 15 5 8 - - 0.0
05/07:00pm 18.4 16.6 9.6 56 4.7 NE 9 11 5 6 - - 0.0
05/06:50pm 18.6 16.8 9.6 55 4.8 NE 9 11 5 6 - - 0.0
05/06:40pm 19.0 17.2 9.4 53 5.1 NE 9 11 5 6 - - 0.0
05/06:30pm 19.1 17.2 9.2 52 5.3 NE 9 13 5 7 - - 0.0
05/06:20pm 19.1 16.7 8.8 51 5.5 NE 11 15 6 8 - - 0.0
05/06:10pm 19.0 17.1 8.9 52 5.4 ENE 9 11 5 6 - - 0.0
05/06:00pm 19.1 17.2 8.9 51 5.4 ENE 9 11 5 6 - - 0.0
05/05:50pm 19.1 17.2 9.1 52 5.3 ENE 9 11 5 6 - - 0.0
05/05:40pm 19.1 17.3 9.4 53 5.2 ENE 9 13 5 7 - - 0.0
05/05:30pm 19.3 17.0 8.9 51 5.5 ENE 11 13 6 7 - - 0.0
05/05:20pm 19.3 17.0 8.9 51 5.5 ENE 11 15 6 8 - - 0.0
05/05:10pm 19.3 16.2 9.0 51 5.5 ENE 15 17 8 9 - - 0.0
05/05:00pm 19.4 16.7 9.1 51 5.5 ENE 13 15 7 8 - - 0.0
05/04:50pm 19.5 17.2 9.0 50 5.6 ENE 11 13 6 7 - - 0.0
05/04:40pm 19.6 17.7 9.1 50 5.6 ENE 9 13 5 7 - - 0.0
05/04:30pm 19.7 17.8 9.1 50 5.7 ENE 9 11 5 6 - - 0.0
05/04:20pm 19.8 18.2 8.8 49 5.8 NE 7 7 4 4 - - 0.0
05/04:10pm 19.8 17.8 8.8 49 5.8 NE 9 13 5 7 - - 0.0
05/04:00pm 19.9 17.8 8.4 47 6.1 ENE 9 11 5 6 - - 0.0
05/03:50pm 20.0 17.6 8.5 47 6.1 ENE 11 13 6 7 - - 0.0
05/03:40pm 20.1 18.0 8.2 46 6.3 ENE 9 13 5 7 - - 0.0
05/03:30pm 20.3 18.6 8.5 46 6.3 NE 7 9 4 5 - - 0.0
05/03:20pm 20.3 18.2 8.4 46 6.3 NE 9 11 5 6 - - 0.0
05/03:10pm 20.4 18.3 8.3 45 6.4 NE 9 13 5 7 - - 0.0
05/03:00pm 20.4 17.6 8.4 46 6.4 NE 13 19 7 10 - - 0.0
05/02:50pm 20.4 18.3 8.3 45 6.4 NE 9 13 5 7 - - 0.0
05/02:40pm 20.4 18.9 9.3 49 6.0 NNE 7 11 4 6 - - 0.0
05/02:30pm 20.3 18.6 9.9 51 5.7 NNE 9 17 5 9 - - 0.0
05/02:20pm 20.4 18.5 9.0 48 6.1 NE 9 13 5 7 - - 0.0
05/02:10pm 20.4 18.5 9.1 48 6.1 NE 9 13 5 7 - - 0.0
05/02:00pm 20.4 18.2 9.2 48 6.0 NE 11 11 6 6 - - 0.0
05/01:50pm 20.4 17.8 9.2 48 6.0 NNE 13 17 7 9 - - 0.0
05/01:40pm 20.5 18.4 9.6 49 5.9 NE 11 15 6 8 - - 0.0
05/01:30pm 20.7 18.4 9.0 47 6.3 NE 11 17 6 9 - - 0.0
05/01:20pm 20.5 18.1 10.1 51 5.7 NNE 13 19 7 10 - - 0.0
05/01:10pm 20.2 18.4 9.6 50 5.7 NNE 9 13 5 7 - - 0.0
05/01:00pm 19.9 17.2 8.8 48 5.9 ENE 13 20 7 11 - - 0.0
05/12:50pm 20.4 17.3 8.7 47 6.2 ENE 15 20 8 11 - - 0.0
05/12:40pm 20.6 18.0 9.3 48 6.1 ENE 13 17 7 9 - - 0.0
05/12:30pm 20.3 17.6 9.0 48 6.0 NE 13 17 7 9 - - 0.0
05/12:20pm 20.0 17.5 8.4 47 6.1 NE 11 15 6 8 - - 0.0
05/12:10pm 19.9 17.5 8.7 48 5.9 NE 11 13 6 7 - - 0.0
05/12:00pm 19.8 16.7 8.8 49 5.8 ENE 15 20 8 11 - - 0.0
05/11:50am 19.7 17.3 8.7 49 5.8 NE 11 15 6 8 - - 0.0
05/11:40am 19.8 17.1 8.9 49 5.8 NE 13 20 7 11 - - 0.0
05/11:30am 19.8 17.0 8.7 48 5.9 ENE 13 20 7 11 - - 0.0
05/11:20am 20.0 17.3 8.8 48 6.0 NE 13 15 7 8 - - 0.0
05/11:10am 20.0 17.6 8.6 47 6.0 NE 11 15 6 8 - - 0.0
05/11:00am 20.0 16.9 8.8 48 6.0 NE 15 17 8 9 - - 0.0
05/10:50am 20.2 17.0 8.4 46 6.2 NE 15 22 8 12 - - 0.0
05/10:40am 20.1 16.1 8.3 46 6.2 ENE 19 22 10 12 - - 0.0
05/10:30am 20.7 17.3 9.3 48 6.1 NE 17 20 9 11 - - 0.0
05/10:20am 20.4 16.4 8.3 45 6.4 NE 19 32 10 17 - - 0.0
05/10:10am 20.6 17.8 8.6 46 6.4 NNE 13 17 7 9 - - 0.0
05/09:50am 20.1 17.1 9.4 50 5.8 NE 15 17 8 9 - - 0.0
05/09:40am 19.6 16.2 9.1 50 5.6 NNE 17 20 9 11 - - 0.0
05/09:30am 19.1 16.1 9.4 53 5.2 NE 15 19 8 10 - - 0.0
05/09:20am 19.4 16.7 10.2 55 5.0 NE 15 17 8 9 - - 0.0
05/09:10am 19.2 16.3 9.6 53 5.2 NE 15 22 8 12 - - 0.0
05/09:00am 19.2 16.3 9.8 54 5.1 NE 15 19 8 10 - - 0.0
05/08:50am 18.4 15.5 9.6 56 4.7 NE 15 19 8 10 - - 0.0
05/08:40am 18.2 15.3 9.8 58 4.5 NE 15 19 8 10 - - 0.0
05/08:20am 17.6 15.2 10.1 61 4.0 NE 13 13 7 7 - - 0.0
05/08:10am 17.3 14.1 10.0 62 3.9 ENE 17 19 9 10 - - 0.0
05/08:00am 17.0 13.7 9.7 62 3.9 ENE 17 20 9 11 - - 0.0
05/07:50am 16.6 13.9 10.2 66 3.4 ENE 15 19 8 10 - - 0.0
05/07:40am 16.4 14.1 10.3 67 3.3 ENE 13 20 7 11 - - 0.0
05/07:30am 16.1 13.3 10.1 67 3.2 ENE 15 20 8 11 - - 0.0
05/07:20am 15.8 13.1 10.3 70 2.9 ENE 15 20 8 11 - - 0.0
05/07:10am 15.6 12.6 10.5 71 2.7 ENE 17 19 9 10 - - 0.0
05/07:00am 15.3 12.6 10.4 72 2.6 ENE 15 19 8 10 - - 0.0
05/06:50am 14.8 12.5 10.5 75 2.3 ENE 13 15 7 8 - - 0.0
05/06:40am 14.2 12.7 10.4 78 2.0 ENE 9 11 5 6 - - 0.0
05/06:30am 13.5 11.9 10.2 80 1.7 ENE 9 11 5 6 - - 0.0
05/06:20am 12.9 11.3 10.3 84 1.4 ENE 9 11 5 6 - - 0.0
05/06:10am 12.5 10.9 10.2 86 1.2 ENE 9 9 5 5 - - 0.0
05/06:00am 12.4 10.8 10.1 86 1.2 ENE 9 9 5 5 - - 0.0
05/05:50am 12.3 11.1 10.2 87 1.1 ENE 7 7 4 4 - - 0.0
05/05:40am 12.2 10.9 10.1 87 1.1 E 7 7 4 4 - - 0.0
05/05:30am 12.1 11.0 10.0 87 1.1 ENE 6 7 3 4 - - 0.0
05/05:20am 12.0 10.9 9.8 86 1.1 ENE 6 7 3 4 - - 0.0
05/05:10am 11.8 11.3 9.5 86 1.2 ENE 2 4 1 2 - - 0.0
05/05:00am 11.7 11.5 9.1 84 1.3 CALM 0 0 0 0 - - 0.0
05/04:50am 11.8 10.9 9.3 85 1.3 NNE 4 6 2 3 - - 0.0
05/04:40am 11.9 10.6 9.1 83 1.4 N 6 6 3 3 - - 0.0
05/04:30am 12.1 10.8 9.2 82 1.5 NNE 6 6 3 3 - - 0.0
05/04:20am 12.2 11.3 9.3 82 1.5 NE 4 4 2 2 - - 0.0
05/04:10am 12.2 11.3 9.2 82 1.5 NE 4 6 2 3 - - 0.0
05/04:00am 12.0 10.1 9.2 83 1.4 ENE 9 11 5 6 - - 0.0
05/03:50am 12.3 10.8 9.2 81 1.6 ENE 7 9 4 5 - - 0.0
05/03:40am 12.4 10.9 9.3 81 1.6 ENE 7 7 4 4 - - 0.0
05/03:30am 12.5 11.0 9.3 81 1.6 ENE 7 9 4 5 - - 0.0
05/03:20am 12.2 10.0 9.4 83 1.4 ENE 11 11 6 6 - - 0.0
05/03:10am 12.3 10.1 9.3 82 1.5 E 11 11 6 6 - - 0.0
05/03:00am 12.6 11.1 9.3 80 1.7 ENE 7 9 4 5 - - 0.0
05/02:50am 13.1 12.3 9.6 79 1.8 NE 4 7 2 4 - - 0.0
05/02:40am 13.0 11.8 9.7 80 1.7 NE 6 6 3 3 - - 0.0
05/02:30am 13.0 12.2 9.7 80 1.7 NNE 4 6 2 3 - - 0.0
05/02:20am 12.9 11.7 9.7 81 1.7 NE 6 9 3 5 - - 0.0
05/02:10am 12.8 10.7 9.6 81 1.7 ENE 11 13 6 7 - - 0.0
05/02:00am 13.0 10.9 9.7 80 1.7 E 11 13 6 7 - - 0.0
05/01:50am 13.3 11.6 9.8 79 1.8 ENE 9 11 5 6 - - 0.0
05/01:40am 13.3 11.2 9.9 80 1.8 ENE 11 13 6 7 - - 0.0
05/01:30am 13.6 11.6 10.0 79 1.9 ENE 11 13 6 7 - - 0.0
05/01:20am 14.0 12.9 10.0 77 2.1 NE 6 7 3 4 - - 0.0
05/01:10am 13.9 13.2 9.9 77 2.1 NE 4 6 2 3 - - 0.0
05/01:00am 13.7 12.9 9.8 77 2.0 NE 4 6 2 3 - - 0.0
05/12:50am 14.1 13.4 9.9 76 2.2 NE 4 6 2 3 - - 0.0
05/12:40am 14.7 14.0 10.1 74 2.4 NE 4 6 2 3 - - 0.0
05/12:30am 14.8 13.5 10.1 73 2.5 NNE 7 11 4 6 - - 0.0
05/12:20am 14.9 13.3 10.1 73 2.5 NNE 9 13 5 7 - - 0.0
05/12:10am 14.9 13.3 10.2 73 2.5 NNE 9 13 5 7 - - 0.0
05/12:00am 14.9 13.7 10.3 74 2.4 NE 7 9 4 5 - - 0.0
 
Date/Time
EST
Temp
°C
App
Temp
°C
Dew
Point
°C
Rel
Hum
%
Delta-T
°C
Wind Press
QNH
hPa
Press
MSL
hPa
Rain since
9am
mm
Dir  Spd
km/h
Gust
km/h
Spd
kts
Gust
kts
04/11:50pm 15.0 13.8 10.2 73 2.5 NE 7 9 4 5 - - 0.0
04/11:40pm 14.9 13.9 10.2 73 2.5 NE 6 7 3 4 - - 0.0
04/11:30pm 15.0 14.0 10.4 74 2.5 NE 6 7 3 4 - - 0.0
04/11:20pm 15.0 14.3 10.2 73 2.5 NE 4 6 2 3 - - 0.0
04/11:10pm 14.9 13.6 9.9 72 2.6 NNE 7 7 4 4 - - 0.0
04/11:00pm 15.1 14.1 10.2 72 2.6 NE 6 7 3 4 - - 0.0
04/10:50pm 15.2 14.5 10.2 72 2.7 NE 4 6 2 3 - - 0.0
04/10:40pm 15.0 14.3 9.9 71 2.7 NE 4 6 2 3 - - 0.0
04/10:30pm 14.7 13.9 9.7 72 2.6 NE 4 6 2 3 - - 0.0
04/10:20pm 14.2 12.8 9.6 74 2.4 ENE 7 9 4 5 - - 0.0
04/10:10pm 14.3 12.9 9.7 74 2.4 ENE 7 7 4 4 - - 0.0
04/10:00pm 14.7 13.3 9.7 72 2.6 E 7 9 4 5 - - 0.0
04/09:50pm 15.1 13.7 9.6 69 2.9 ESE 7 7 4 4 - - 0.0
04/09:40pm 15.3 14.4 9.2 67 3.2 ENE 4 7 2 4 - - 0.0
04/09:30pm 15.4 14.8 9.0 65 3.3 ENE 2 4 1 2 - - 0.0
04/09:10pm 15.7 14.3 9.6 67 3.2 E 7 9 4 5 - - 0.0
04/08:50pm 17.2 14.9 9.1 59 4.3 NE 11 15 6 8 - - 0.0
04/08:40pm 17.2 14.4 8.6 57 4.5 NNE 13 13 7 7 - - 0.0
04/08:30pm 17.0 15.4 8.9 59 4.2 NE 7 11 4 6 - - 0.0
04/08:20pm 17.1 15.7 8.9 58 4.3 NE 6 7 3 4 - - 0.0
04/08:10pm 17.2 16.3 9.2 59 4.2 NE 4 6 2 3 - - 0.0
04/08:00pm 17.3 16.4 9.1 58 4.3 NE 4 6 2 3 - - 0.0
04/07:50pm 17.4 16.0 9.0 58 4.4 NE 6 6 3 3 - - 0.0
04/07:40pm 17.3 16.4 9.2 59 4.3 NE 4 6 2 3 - - 0.0
04/07:30pm 17.4 16.4 8.9 57 4.5 NE 4 4 2 2 - - 0.0
04/07:20pm 17.8 16.8 8.9 56 4.7 NE 4 4 2 2 - - 0.0
04/07:10pm 18.3 16.9 8.9 54 5.0 NE 6 7 3 4 - - 0.0
04/07:00pm 18.6 17.2 8.7 52 5.2 NNE 6 7 3 4 - - 0.0
04/06:50pm 18.8 17.4 8.8 52 5.3 NNE 6 7 3 4 - - 0.0
04/06:40pm 19.0 17.4 8.7 51 5.4 NNE 7 7 4 4 - - 0.0
04/06:30pm 19.2 17.6 8.6 50 5.6 NNE 7 9 4 5 - - 0.0
04/06:20pm 19.3 17.7 8.9 51 5.5 NNE 7 9 4 5 - - 0.0
04/06:10pm 19.6 18.0 8.8 49 5.7 NNE 7 7 4 4 - - 0.0
04/06:00pm 20.4 19.1 9.3 49 6.0 N 6 7 3 4 - - 0.0
04/05:50pm 21.0 20.0 9.0 46 6.4 N 4 6 2 3 - - 0.0
04/05:40pm 21.7 20.4 9.1 44 6.8 N 6 6 3 3 - - 0.0
04/05:30pm 21.9 20.8 8.4 42 7.2 N 4 6 2 3 - - 0.0
04/05:20pm 21.7 20.7 8.7 43 7.0 N 4 6 2 3 - - 0.0
04/05:10pm 21.2 19.8 8.8 45 6.6 N 6 7 3 4 - - 0.0
04/05:00pm 21.4 19.8 8.8 44 6.8 N 7 9 4 5 - - 0.0
04/04:50pm 22.3 20.5 9.4 43 7.0 N 9 11 5 6 - - 0.0
04/04:40pm 23.4 21.1 8.9 39 7.9 N 11 13 6 7 - - 0.0
04/04:30pm 23.8 22.2 8.0 36 8.5 NNW 6 11 3 6 - - 0.0
04/04:20pm 23.8 21.5 7.4 35 8.7 NW 9 11 5 6 - - 0.0
04/04:10pm 23.6 22.3 7.7 36 8.5 N 4 6 2 3 - - 0.0
04/04:00pm 22.7 21.3 9.4 42 7.3 N 7 9 4 5 - - 0.0
04/03:50pm 23.4 21.7 9.7 41 7.6 NNE 9 13 5 7 - - 0.0
04/03:40pm 23.7 22.0 9.7 41 7.7 NE 9 11 5 6 - - 0.0
04/03:30pm 24.2 22.8 9.7 39 8.0 N 7 9 4 5 - - 0.0
04/03:20pm 24.0 22.4 7.8 35 8.7 N 6 11 3 6 - - 0.0
04/03:10pm 23.0 21.7 7.7 37 8.1 N 4 7 2 4 - - 0.0
04/03:00pm 22.5 21.2 9.1 42 7.3 NNE 6 6 3 3 - - 0.0
04/02:50pm 22.9 21.7 9.5 42 7.3 NE 6 9 3 5 - - 0.0
04/02:40pm 23.1 21.5 8.1 38 8.0 NE 6 7 3 4 - - 0.0
04/02:30pm 23.4 21.9 9.1 40 7.8 NNE 7 9 4 5 - - 0.0
04/02:20pm 24.1 22.2 8.9 38 8.3 NNE 9 11 5 6 - - 0.0
04/02:10pm 24.2 22.6 8.8 37 8.4 N 7 11 4 6 - - 0.0
04/02:00pm 23.7 23.2 9.3 40 7.9 NNE 2 6 1 3 - - 0.0
04/01:50pm 23.4 21.5 7.7 36 8.3 NNE 7 11 4 6 - - 0.0
04/01:40pm 23.7 21.6 8.3 37 8.3 NE 9 15 5 8 - - 0.0
04/01:30pm 23.7 22.1 8.1 37 8.4 NNE 6 7 3 4 - - 0.0
04/01:20pm 23.2 21.4 8.1 38 8.1 NNE 7 11 4 6 - - 0.0
04/01:10pm 22.8 20.8 8.5 40 7.7 NE 9 13 5 7 - - 0.0
04/01:00pm 22.9 21.2 7.5 37 8.1 NE 6 9 3 5 - - 0.0
04/12:50pm 22.9 21.3 8.1 38 7.9 N 6 7 3 4 - - 0.0
04/12:40pm 22.8 20.6 8.0 38 7.9 NE 9 13 5 7 - - 0.0
04/12:30pm 22.7 20.6 8.4 40 7.7 ENE 9 13 5 7 - - 0.0
04/12:20pm 22.4 20.7 8.2 40 7.6 ENE 7 11 4 6 - - 0.0
04/12:10pm 22.5 20.1 8.7 41 7.4 N 11 15 6 8 - - 0.0
04/12:00pm 22.2 20.3 9.1 43 7.1 ENE 9 13 5 7 - - 0.0
04/11:50am 22.3 20.5 8.0 40 7.6 NE 7 11 4 6 - - 0.0
04/11:40am 22.4 20.2 7.8 39 7.7 NNE 9 15 5 8 - - 0.0
04/11:30am 21.8 19.8 8.7 43 7.0 NNE 9 17 5 9 - - 0.0
04/11:20am 21.3 19.6 8.4 43 6.9 NNE 7 11 4 6 - - 0.0
04/11:10am 21.6 19.5 8.3 42 7.1 NNE 9 13 5 7 - - 0.0
04/11:00am 21.1 18.5 7.6 41 7.1 ENE 11 17 6 9 - - 0.0
04/10:50am 21.2 19.0 7.9 42 7.0 ENE 9 13 5 7 - - 0.0
04/10:40am 21.3 18.8 8.1 42 7.0 NNE 11 13 6 7 - - 0.0
04/10:30am 21.1 19.2 8.9 45 6.5 NE 9 13 5 7 - - 0.0
04/10:20am 20.8 18.2 7.9 43 6.8 NE 11 17 6 9 - - 0.0
04/10:10am 20.6 18.5 8.2 44 6.5 NE 9 13 5 7 - - 0.0
04/10:00am 20.3 18.1 9.3 49 5.9 NNE 11 13 6 7 - - 0.0
04/09:50am 20.1 17.6 9.8 51 5.6 NNE 13 17 7 9 - - 0.0
04/09:40am 19.9 17.2 9.0 49 5.8 NE 13 17 7 9 - - 0.0
04/09:30am 19.6 17.1 8.1 47 6.0 NE 11 13 6 7 - - 0.0
04/09:20am 19.1 16.9 9.3 53 5.2 NE 11 13 6 7 - - 0.0
04/09:10am 19.0 16.2 8.7 51 5.4 NNE 13 15 7 8 - - 0.0
04/09:00am 18.8 16.2 9.2 53 5.1 NNE 13 17 7 9 - - 0.0
04/08:50am 18.3 16.4 9.0 54 4.9 NE 9 15 5 8 - - 0.0
04/08:40am 17.7 15.4 8.9 56 4.6 NNE 11 13 6 7 - - 0.0
04/08:30am 17.0 14.8 9.2 60 4.1 NE 11 15 6 8 - - 0.0
04/08:20am 16.7 15.3 9.6 63 3.8 NE 7 9 4 5 - - 0.0
04/08:10am 16.2 14.3 9.2 63 3.7 NNE 9 11 5 6 - - 0.0
04/08:00am 15.6 13.8 9.6 67 3.2 NNE 9 13 5 7 - - 0.0
04/07:50am 15.3 13.4 9.2 67 3.2 NE 9 11 5 6 - - 0.0
04/07:40am 15.0 13.1 9.0 67 3.1 NE 9 11 5 6 - - 0.0
04/07:30am 14.6 13.4 9.7 72 2.6 NE 6 7 3 4 - - 0.0
04/07:20am 13.9 13.1 9.8 76 2.1 NNE 4 6 2 3 - - 0.0
04/07:10am 13.1 12.2 9.3 78 2.0 ENE 4 6 2 3 - - 0.0
04/07:00am 12.6 11.6 9.0 79 1.8 NE 4 4 2 2 - - 0.0
04/06:50am 11.9 10.5 8.9 82 1.5 NNE 6 6 3 3 - - 0.0
04/06:40am 11.4 10.0 8.8 84 1.3 NNE 6 7 3 4 - - 0.0
04/06:30am 10.8 9.4 8.8 87 1.0 NNE 6 6 3 3 - - 0.0
04/06:20am 10.2 8.7 8.4 89 0.9 NE 6 7 3 4 - - 0.0
04/06:10am 9.8 8.0 8.1 89 0.8 E 7 7 4 4 - - 0.0
04/06:00am 9.7 8.2 8.5 92 0.6 ENE 6 7 3 4 - - 0.0
04/05:50am 9.1 7.3 8.0 93 0.5 ENE 7 15 4 8 - - 0.0
04/05:40am 8.3 5.5 7.0 91 0.6 ENE 11 15 6 8 - - 0.0
04/05:30am 8.3 6.4 6.9 91 0.7 ENE 6 7 3 4 - - 0.0
04/05:20am 8.3 6.4 6.9 91 0.7 E 6 7 3 4 - - 0.0
04/05:10am 8.4 6.6 7.0 91 0.7 E 6 6 3 3 - - 0.0
04/05:00am 8.4 7.3 6.9 90 0.7 ENE 2 4 1 2 - - 0.0
04/04:50am 8.4 7.7 6.9 90 0.7 CALM 0 2 0 1 - - 0.0
04/04:40am 8.3 7.5 6.6 89 0.8 CALM 0 0 0 0 - - 0.0
04/04:30am 8.6 7.9 6.8 88 0.9 CALM 0 2 0 1 - - 0.0
04/04:20am 8.6 7.5 6.8 88 0.9 NE 2 4 1 2 - - 0.0
04/04:10am 8.9 7.8 6.8 87 1.0 ENE 2 6 1 3 - - 0.0
04/04:00am 9.1 8.0 6.7 85 1.1 NE 2 4 1 2 - - 0.0
04/03:50am 9.7 8.4 7.7 87 1.0 ENE 4 6 2 3 - - 0.0
04/03:40am 9.8 8.8 7.5 85 1.1 NE 2 4 1 2 - - 0.0
04/03:30am 10.1 9.2 7.6 84 1.2 NE 2 4 1 2 - - 0.0
04/03:20am 10.3 9.0 7.7 84 1.3 NE 4 4 2 2 - - 0.0
04/03:10am 10.4 8.8 7.8 84 1.3 NNE 6 6 3 3 - - 0.0
04/03:00am 10.3 8.7 7.9 85 1.2 NNE 6 6 3 3 - - 0.0
04/02:50am 10.3 9.0 7.7 84 1.3 NE 4 6 2 3 - - 0.0
04/02:40am 10.3 8.6 7.6 83 1.3 NE 6 6 3 3 - - 0.0
04/02:30am 10.5 8.8 7.6 82 1.4 ENE 6 7 3 4 - - 0.0
04/02:20am 10.4 8.7 7.7 83 1.3 ENE 6 6 3 3 - - 0.0
04/02:10am 10.3 8.4 7.6 83 1.3 ENE 7 9 4 5 - - 0.0
04/02:00am 10.2 8.3 7.5 83 1.3 ENE 7 9 4 5 - - 0.0
04/01:50am 10.3 8.4 7.7 84 1.3 ENE 7 7 4 4 - - 0.0
04/01:40am 10.1 8.2 7.4 83 1.3 ENE 7 7 4 4 - - 0.0
04/01:30am 9.8 7.8 7.2 84 1.3 ENE 7 7 4 4 - - 0.0
04/01:20am 10.1 8.1 7.1 81 1.4 E 7 9 4 5 - - 0.0
04/01:10am 10.8 8.9 7.4 79 1.7 E 7 7 4 4 - - 0.0
04/01:00am 11.4 10.2 7.9 79 1.7 ENE 4 4 2 2 - - 0.0
04/12:50am 12.1 10.9 8.1 76 2.0 NE 4 6 2 3 - - 0.0
04/12:40am 12.2 11.0 8.1 76 2.0 NE 4 6 2 3 - - 0.0
04/12:30am 12.4 11.2 7.9 74 2.2 NE 4 6 2 3 - - 0.0
04/12:20am 12.5 10.9 7.8 73 2.3 NE 6 7 3 4 - - 0.0
04/12:10am 12.3 11.0 7.8 74 2.2 NE 4 6 2 3 - - 0.0
04/12:00am 12.2 10.9 7.5 73 2.3 NE 4 6 2 3 - - 0.0
 
Date/Time
EST
Temp
°C
App
Temp
°C
Dew
Point
°C
Rel
Hum
%
Delta-T
°C
Wind Press
QNH
hPa
Press
MSL
hPa
Rain since
9am
mm
Dir  Spd
km/h
Gust
km/h
Spd
kts
Gust
kts
03/11:50pm 12.2 10.8 7.4 72 2.4 NE 4 4 2 2 - - 0.0
03/11:40pm 12.3 10.9 7.4 72 2.4 NE 4 4 2 2 - - 0.0
03/11:30pm 12.2 10.8 7.3 72 2.4 ENE 4 7 2 4 - - 0.0

Other formats

Comma delimited format used in spreadsheet applications
http://www.bom.gov.au/fwo/IDQ60801/IDQ60801.99122.axf

JavaScript Object Notation format (JSON) in row-major order
http://www.bom.gov.au/fwo/IDQ60801/IDQ60801.99122.json

Data quality

Most of these data are generated automatically and are frequently updated. Quality checks on data are not normally performed. It is possible for incorrect values to appear. Refer to information at About Latest Weather Observations and please check the disclaimer before using these data.